Cecilia, Louisiana
Current Conditions -  °F | °C
As of 6:53 PM on Monday 26 Jan 2015 (Local Time) from KLFT Reporting Station
Clear Clear  
Wind Chill: 50°   Ceiling: Unl
Heat Index: 50°   Visibility: 10mi
Dew Point: 40°   Wind: 3mph
Humidity: 68%   Direction: 200°SSW
Pressure: 30.12"   Gusts: NA
Location:  30.34°N, 91.85°W
Report Text: KLFT 270053Z 20003KT 10SM CLR 10/04 A3012 RMK AO2 SLP200 T01000044
Loading
Personal Weather Stations






























Interactive Weather Map New forecast layout! Learn more

10-Day Weather Forecast

Advertisements
Track Severe Weather on mobile